sensor_id;sensor_type;location;lat;lon;timestamp;P1;durP1;ratioP1;P2;durP2;ratioP2
19998;SDS011;10160;50.926;4.374;2024-02-28T00:00:27;26.63;;;11.20;;
19998;SDS011;10160;50.926;4.374;2024-02-28T00:02:53;18.40;;;10.90;;
19998;SDS011;10160;50.926;4.374;2024-02-28T00:05:19;16.47;;;9.70;;
19998;SDS011;10160;50.926;4.374;2024-02-28T00:07:44;21.53;;;10.70;;
19998;SDS011;10160;50.926;4.374;2024-02-28T00:10:11;17.97;;;9.30;;
19998;SDS011;10160;50.926;4.374;2024-02-28T00:12:36;25.33;;;11.00;;
19998;SDS011;10160;50.926;4.374;2024-02-28T00:15:04;26.67;;;11.23;;
19998;SDS011;10160;50.926;4.374;2024-02-28T00:17:30;28.47;;;11.17;;
19998;SDS011;10160;50.926;4.374;2024-02-28T00:19:56;26.10;;;10.90;;
19998;SDS011;10160;50.926;4.374;2024-02-28T00:22:22;26.00;;;10.57;;
19998;SDS011;10160;50.926;4.374;2024-02-28T00:24:47;21.70;;;10.77;;
19998;SDS011;10160;50.926;4.374;2024-02-28T00:27:13;22.50;;;10.63;;
19998;SDS011;10160;50.926;4.374;2024-02-28T00:29:39;21.47;;;11.07;;
19998;SDS011;10160;50.926;4.374;2024-02-28T00:32:04;22.90;;;10.77;;
19998;SDS011;10160;50.926;4.374;2024-02-28T00:34:30;23.43;;;11.03;;
19998;SDS011;10160;50.926;4.374;2024-02-28T00:36:56;19.73;;;10.73;;
19998;SDS011;10160;50.926;4.374;2024-02-28T00:39:22;20.13;;;10.23;;
19998;SDS011;10160;50.926;4.374;2024-02-28T00:41:48;20.17;;;10.17;;
19998;SDS011;10160;50.926;4.374;2024-02-28T00:44:13;17.80;;;9.83;;
19998;SDS011;10160;50.926;4.374;2024-02-28T00:46:39;22.70;;;10.27;;
19998;SDS011;10160;50.926;4.374;2024-02-28T00:49:05;23.20;;;10.73;;
19998;SDS011;10160;50.926;4.374;2024-02-28T00:51:30;16.47;;;10.37;;
19998;SDS011;10160;50.926;4.374;2024-02-28T00:53:56;22.63;;;11.17;;
19998;SDS011;10160;50.926;4.374;2024-02-28T00:56:22;18.00;;;10.03;;
19998;SDS011;10160;50.926;4.374;2024-02-28T00:58:49;21.17;;;10.83;;
19998;SDS011;10160;50.926;4.374;2024-02-28T01:01:15;22.67;;;11.23;;
19998;SDS011;10160;50.926;4.374;2024-02-28T01:03:40;17.40;;;10.07;;
19998;SDS011;10160;50.926;4.374;2024-02-28T01:06:06;20.50;;;10.90;;
19998;SDS011;10160;50.926;4.374;2024-02-28T01:08:31;17.97;;;10.10;;
19998;SDS011;10160;50.926;4.374;2024-02-28T01:10:57;21.13;;;10.53;;
19998;SDS011;10160;50.926;4.374;2024-02-28T01:13:24;23.40;;;10.70;;
19998;SDS011;10160;50.926;4.374;2024-02-28T01:15:49;23.67;;;10.27;;
19998;SDS011;10160;50.926;4.374;2024-02-28T01:18:15;22.17;;;10.20;;
19998;SDS011;10160;50.926;4.374;2024-02-28T01:20:41;16.20;;;9.37;;
19998;SDS011;10160;50.926;4.374;2024-02-28T01:23:06;18.17;;;9.47;;
19998;SDS011;10160;50.926;4.374;2024-02-28T01:25:32;20.83;;;9.30;;
19998;SDS011;10160;50.926;4.374;2024-02-28T01:27:58;20.93;;;9.27;;
19998;SDS011;10160;50.926;4.374;2024-02-28T01:30:24;16.17;;;9.47;;
19998;SDS011;10160;50.926;4.374;2024-02-28T01:32:50;18.17;;;9.80;;
19998;SDS011;10160;50.926;4.374;2024-02-28T01:35:16;15.70;;;9.27;;
19998;SDS011;10160;50.926;4.374;2024-02-28T01:37:41;15.90;;;9.10;;
19998;SDS011;10160;50.926;4.374;2024-02-28T01:40:07;23.10;;;9.67;;
19998;SDS011;10160;50.926;4.374;2024-02-28T01:42:33;27.10;;;11.10;;
19998;SDS011;10160;50.926;4.374;2024-02-28T01:44:59;18.20;;;10.37;;
19998;SDS011;10160;50.926;4.374;2024-02-28T01:47:24;19.60;;;10.70;;
19998;SDS011;10160;50.926;4.374;2024-02-28T01:49:50;24.63;;;11.70;;
19998;SDS011;10160;50.926;4.374;2024-02-28T01:52:18;21.37;;;10.93;;
19998;SDS011;10160;50.926;4.374;2024-02-28T01:54:44;26.07;;;11.30;;
19998;SDS011;10160;50.926;4.374;2024-02-28T01:57:09;25.77;;;11.90;;
19998;SDS011;10160;50.926;4.374;2024-02-28T01:59:35;22.73;;;11.30;;
19998;SDS011;10160;50.926;4.374;2024-02-28T02:02:02;18.40;;;10.67;;
19998;SDS011;10160;50.926;4.374;2024-02-28T02:04:28;22.33;;;10.57;;
19998;SDS011;10160;50.926;4.374;2024-02-28T02:06:54;19.50;;;11.03;;
19998;SDS011;10160;50.926;4.374;2024-02-28T02:09:23;23.73;;;12.53;;
19998;SDS011;10160;50.926;4.374;2024-02-28T02:11:50;20.37;;;12.10;;
19998;SDS011;10160;50.926;4.374;2024-02-28T02:14:16;19.93;;;11.80;;
19998;SDS011;10160;50.926;4.374;2024-02-28T02:16:41;20.27;;;11.23;;
19998;SDS011;10160;50.926;4.374;2024-02-28T02:19:08;23.97;;;11.80;;
19998;SDS011;10160;50.926;4.374;2024-02-28T02:21:36;21.43;;;11.07;;
19998;SDS011;10160;50.926;4.374;2024-02-28T02:24:08;21.63;;;11.77;;
19998;SDS011;10160;50.926;4.374;2024-02-28T02:26:34;20.83;;;11.93;;
19998;SDS011;10160;50.926;4.374;2024-02-28T02:29:00;23.20;;;11.47;;
19998;SDS011;10160;50.926;4.374;2024-02-28T02:31:25;24.07;;;11.93;;
19998;SDS011;10160;50.926;4.374;2024-02-28T02:33:51;24.73;;;11.47;;
19998;SDS011;10160;50.926;4.374;2024-02-28T02:36:16;22.40;;;11.53;;
19998;SDS011;10160;50.926;4.374;2024-02-28T02:38:42;20.93;;;10.53;;
19998;SDS011;10160;50.926;4.374;2024-02-28T02:41:08;20.30;;;10.20;;
19998;SDS011;10160;50.926;4.374;2024-02-28T02:43:34;19.50;;;10.80;;
19998;SDS011;10160;50.926;4.374;2024-02-28T02:45:59;20.33;;;11.20;;
19998;SDS011;10160;50.926;4.374;2024-02-28T02:48:25;21.53;;;11.40;;
19998;SDS011;10160;50.926;4.374;2024-02-28T02:50:50;22.07;;;11.77;;
19998;SDS011;10160;50.926;4.374;2024-02-28T02:53:17;19.27;;;11.13;;
19998;SDS011;10160;50.926;4.374;2024-02-28T02:55:42;22.20;;;11.93;;
19998;SDS011;10160;50.926;4.374;2024-02-28T02:58:08;21.53;;;11.87;;
19998;SDS011;10160;50.926;4.374;2024-02-28T03:00:33;21.23;;;12.00;;
19998;SDS011;10160;50.926;4.374;2024-02-28T03:02:59;27.80;;;12.33;;
19998;SDS011;10160;50.926;4.374;2024-02-28T03:05:25;22.03;;;12.53;;
19998;SDS011;10160;50.926;4.374;2024-02-28T03:07:50;23.93;;;12.70;;
19998;SDS011;10160;50.926;4.374;2024-02-28T03:10:16;26.73;;;13.13;;
19998;SDS011;10160;50.926;4.374;2024-02-28T03:12:42;23.63;;;12.20;;
19998;SDS011;10160;50.926;4.374;2024-02-28T03:15:07;23.17;;;12.13;;
19998;SDS011;10160;50.926;4.374;2024-02-28T03:17:33;26.57;;;12.50;;
19998;SDS011;10160;50.926;4.374;2024-02-28T03:19:59;20.67;;;11.70;;
19998;SDS011;10160;50.926;4.374;2024-02-28T03:22:24;26.77;;;12.27;;
19998;SDS011;10160;50.926;4.374;2024-02-28T03:24:50;21.13;;;11.93;;
19998;SDS011;10160;50.926;4.374;2024-02-28T03:27:15;26.63;;;12.93;;
19998;SDS011;10160;50.926;4.374;2024-02-28T03:29:41;33.57;;;12.80;;
19998;SDS011;10160;50.926;4.374;2024-02-28T03:32:07;28.23;;;12.13;;
19998;SDS011;10160;50.926;4.374;2024-02-28T03:34:33;24.87;;;12.47;;
19998;SDS011;10160;50.926;4.374;2024-02-28T03:36:58;25.53;;;13.43;;
19998;SDS011;10160;50.926;4.374;2024-02-28T03:39:24;23.80;;;13.97;;
19998;SDS011;10160;50.926;4.374;2024-02-28T03:41:49;24.27;;;12.70;;
19998;SDS011;10160;50.926;4.374;2024-02-28T03:44:15;26.43;;;13.33;;
19998;SDS011;10160;50.926;4.374;2024-02-28T03:46:41;25.10;;;13.23;;
19998;SDS011;10160;50.926;4.374;2024-02-28T03:49:06;24.93;;;13.23;;
19998;SDS011;10160;50.926;4.374;2024-02-28T03:51:32;29.27;;;14.47;;
19998;SDS011;10160;50.926;4.374;2024-02-28T03:54:04;27.13;;;13.20;;
19998;SDS011;10160;50.926;4.374;2024-02-28T03:56:30;26.13;;;14.00;;
19998;SDS011;10160;50.926;4.374;2024-02-28T03:58:55;29.93;;;14.23;;
19998;SDS011;10160;50.926;4.374;2024-02-28T04:01:21;30.67;;;13.83;;
19998;SDS011;10160;50.926;4.374;2024-02-28T04:03:46;25.77;;;14.27;;
19998;SDS011;10160;50.926;4.374;2024-02-28T04:06:12;32.50;;;14.47;;
19998;SDS011;10160;50.926;4.374;2024-02-28T04:08:38;30.33;;;14.50;;
19998;SDS011;10160;50.926;4.374;2024-02-28T04:11:06;24.93;;;14.43;;
19998;SDS011;10160;50.926;4.374;2024-02-28T04:13:32;30.60;;;15.40;;
19998;SDS011;10160;50.926;4.374;2024-02-28T04:15:58;27.30;;;14.97;;
19998;SDS011;10160;50.926;4.374;2024-02-28T04:18:23;27.67;;;13.93;;
19998;SDS011;10160;50.926;4.374;2024-02-28T04:20:49;27.53;;;13.90;;
19998;SDS011;10160;50.926;4.374;2024-02-28T04:23:15;30.00;;;15.37;;
19998;SDS011;10160;50.926;4.374;2024-02-28T04:25:42;27.37;;;14.70;;
19998;SDS011;10160;50.926;4.374;2024-02-28T04:28:07;29.93;;;14.93;;
19998;SDS011;10160;50.926;4.374;2024-02-28T04:30:33;27.77;;;15.63;;
19998;SDS011;10160;50.926;4.374;2024-02-28T04:32:59;28.83;;;15.17;;
19998;SDS011;10160;50.926;4.374;2024-02-28T04:35:25;27.77;;;14.13;;
19998;SDS011;10160;50.926;4.374;2024-02-28T04:37:51;29.87;;;13.67;;
19998;SDS011;10160;50.926;4.374;2024-02-28T04:40:16;36.90;;;15.43;;
19998;SDS011;10160;50.926;4.374;2024-02-28T04:42:42;29.60;;;14.03;;
19998;SDS011;10160;50.926;4.374;2024-02-28T04:45:08;33.97;;;15.33;;
19998;SDS011;10160;50.926;4.374;2024-02-28T04:47:34;28.97;;;13.97;;
19998;SDS011;10160;50.926;4.374;2024-02-28T04:50:01;33.57;;;15.50;;
19998;SDS011;10160;50.926;4.374;2024-02-28T04:52:27;25.83;;;14.27;;
19998;SDS011;10160;50.926;4.374;2024-02-28T04:54:52;29.87;;;15.07;;
19998;SDS011;10160;50.926;4.374;2024-02-28T04:57:18;29.07;;;14.20;;
19998;SDS011;10160;50.926;4.374;2024-02-28T04:59:44;30.17;;;13.00;;
19998;SDS011;10160;50.926;4.374;2024-02-28T05:02:10;29.50;;;14.77;;
19998;SDS011;10160;50.926;4.374;2024-02-28T05:04:36;28.03;;;15.80;;
19998;SDS011;10160;50.926;4.374;2024-02-28T05:07:02;30.10;;;15.90;;
19998;SDS011;10160;50.926;4.374;2024-02-28T05:09:28;32.40;;;15.97;;
19998;SDS011;10160;50.926;4.374;2024-02-28T05:11:54;33.37;;;15.73;;
19998;SDS011;10160;50.926;4.374;2024-02-28T05:14:20;31.00;;;13.80;;
19998;SDS011;10160;50.926;4.374;2024-02-28T05:16:49;36.70;;;16.30;;
19998;SDS011;10160;50.926;4.374;2024-02-28T05:19:14;34.80;;;15.87;;
19998;SDS011;10160;50.926;4.374;2024-02-28T05:21:43;29.13;;;15.50;;
19998;SDS011;10160;50.926;4.374;2024-02-28T05:24:09;28.70;;;15.17;;
19998;SDS011;10160;50.926;4.374;2024-02-28T05:26:35;32.63;;;16.77;;
19998;SDS011;10160;50.926;4.374;2024-02-28T05:29:02;31.60;;;15.80;;
19998;SDS011;10160;50.926;4.374;2024-02-28T05:31:28;33.10;;;15.87;;
19998;SDS011;10160;50.926;4.374;2024-02-28T05:33:56;29.87;;;15.37;;
19998;SDS011;10160;50.926;4.374;2024-02-28T05:36:23;32.10;;;15.13;;
19998;SDS011;10160;50.926;4.374;2024-02-28T05:38:49;25.23;;;13.47;;
19998;SDS011;10160;50.926;4.374;2024-02-28T05:41:18;29.50;;;15.33;;
19998;SDS011;10160;50.926;4.374;2024-02-28T05:43:44;27.30;;;13.73;;
19998;SDS011;10160;50.926;4.374;2024-02-28T05:46:11;35.60;;;14.90;;
19998;SDS011;10160;50.926;4.374;2024-02-28T05:48:36;32.33;;;14.90;;
19998;SDS011;10160;50.926;4.374;2024-02-28T05:51:02;24.10;;;12.87;;
19998;SDS011;10160;50.926;4.374;2024-02-28T05:53:29;33.27;;;14.47;;
19998;SDS011;10160;50.926;4.374;2024-02-28T05:56:00;31.60;;;15.40;;
19998;SDS011;10160;50.926;4.374;2024-02-28T05:58:45;25.53;;;14.17;;
19998;SDS011;10160;50.926;4.374;2024-02-28T06:01:16;29.97;;;14.77;;
19998;SDS011;10160;50.926;4.374;2024-02-28T06:03:42;28.33;;;14.97;;
19998;SDS011;10160;50.926;4.374;2024-02-28T06:06:10;30.20;;;16.30;;
19998;SDS011;10160;50.926;4.374;2024-02-28T06:08:37;29.50;;;13.63;;
19998;SDS011;10160;50.926;4.374;2024-02-28T06:11:04;30.77;;;14.70;;
19998;SDS011;10160;50.926;4.374;2024-02-28T06:13:30;35.97;;;15.80;;
19998;SDS011;10160;50.926;4.374;2024-02-28T06:15:56;31.40;;;15.43;;
19998;SDS011;10160;50.926;4.374;2024-02-28T06:18:22;30.50;;;14.50;;
19998;SDS011;10160;50.926;4.374;2024-02-28T06:20:49;26.30;;;14.10;;
19998;SDS011;10160;50.926;4.374;2024-02-28T06:23:15;30.77;;;15.33;;
19998;SDS011;10160;50.926;4.374;2024-02-28T06:25:42;30.73;;;15.10;;
19998;SDS011;10160;50.926;4.374;2024-02-28T06:28:08;28.97;;;15.43;;
19998;SDS011;10160;50.926;4.374;2024-02-28T06:30:35;27.20;;;14.57;;
19998;SDS011;10160;50.926;4.374;2024-02-28T06:33:00;36.77;;;13.60;;
19998;SDS011;10160;50.926;4.374;2024-02-28T06:35:26;25.87;;;13.37;;
19998;SDS011;10160;50.926;4.374;2024-02-28T06:37:52;26.10;;;13.53;;
19998;SDS011;10160;50.926;4.374;2024-02-28T06:40:18;34.07;;;14.83;;
19998;SDS011;10160;50.926;4.374;2024-02-28T06:42:44;40.27;;;15.97;;
19998;SDS011;10160;50.926;4.374;2024-02-28T06:45:10;28.13;;;14.33;;
19998;SDS011;10160;50.926;4.374;2024-02-28T06:47:36;32.03;;;15.07;;
19998;SDS011;10160;50.926;4.374;2024-02-28T06:50:05;29.73;;;13.83;;
19998;SDS011;10160;50.926;4.374;2024-02-28T06:52:31;33.60;;;15.67;;
19998;SDS011;10160;50.926;4.374;2024-02-28T06:54:58;27.93;;;13.30;;
19998;SDS011;10160;50.926;4.374;2024-02-28T06:57:25;33.93;;;14.93;;
19998;SDS011;10160;50.926;4.374;2024-02-28T06:59:50;31.53;;;15.00;;
19998;SDS011;10160;50.926;4.374;2024-02-28T07:02:16;30.70;;;16.03;;
19998;SDS011;10160;50.926;4.374;2024-02-28T07:04:41;37.77;;;16.67;;
19998;SDS011;10160;50.926;4.374;2024-02-28T07:07:07;35.07;;;16.33;;
19998;SDS011;10160;50.926;4.374;2024-02-28T07:09:33;34.20;;;14.40;;
19998;SDS011;10160;50.926;4.374;2024-02-28T07:11:59;29.10;;;14.60;;
19998;SDS011;10160;50.926;4.374;2024-02-28T07:14:26;29.97;;;15.20;;
19998;SDS011;10160;50.926;4.374;2024-02-28T07:16:51;31.97;;;15.23;;
19998;SDS011;10160;50.926;4.374;2024-02-28T07:19:17;37.63;;;15.20;;
19998;SDS011;10160;50.926;4.374;2024-02-28T07:21:43;30.53;;;14.93;;
19998;SDS011;10160;50.926;4.374;2024-02-28T07:24:09;25.90;;;12.17;;
19998;SDS011;10160;50.926;4.374;2024-02-28T07:26:35;34.50;;;14.90;;
19998;SDS011;10160;50.926;4.374;2024-02-28T07:29:01;36.43;;;13.93;;
19998;SDS011;10160;50.926;4.374;2024-02-28T07:31:27;26.27;;;12.27;;
19998;SDS011;10160;50.926;4.374;2024-02-28T07:33:53;34.00;;;15.17;;
19998;SDS011;10160;50.926;4.374;2024-02-28T07:36:19;29.37;;;12.27;;
19998;SDS011;10160;50.926;4.374;2024-02-28T07:38:45;48.43;;;11.53;;
19998;SDS011;10160;50.926;4.374;2024-02-28T07:41:10;29.27;;;12.90;;
19998;SDS011;10160;50.926;4.374;2024-02-28T07:43:36;31.70;;;12.13;;
19998;SDS011;10160;50.926;4.374;2024-02-28T07:46:09;25.07;;;10.57;;
19998;SDS011;10160;50.926;4.374;2024-02-28T07:48:36;26.73;;;11.90;;
19998;SDS011;10160;50.926;4.374;2024-02-28T07:51:04;28.17;;;12.63;;
19998;SDS011;10160;50.926;4.374;2024-02-28T07:53:30;25.80;;;12.03;;
19998;SDS011;10160;50.926;4.374;2024-02-28T07:55:55;31.83;;;11.37;;
19998;SDS011;10160;50.926;4.374;2024-02-28T07:58:21;23.53;;;11.60;;
19998;SDS011;10160;50.926;4.374;2024-02-28T08:00:47;29.57;;;12.63;;
19998;SDS011;10160;50.926;4.374;2024-02-28T08:03:12;34.70;;;12.50;;
19998;SDS011;10160;50.926;4.374;2024-02-28T08:05:38;26.73;;;11.23;;
19998;SDS011;10160;50.926;4.374;2024-02-28T08:08:07;26.43;;;12.30;;
19998;SDS011;10160;50.926;4.374;2024-02-28T08:10:33;33.50;;;12.87;;
19998;SDS011;10160;50.926;4.374;2024-02-28T08:13:00;31.47;;;12.23;;
19998;SDS011;10160;50.926;4.374;2024-02-28T08:15:26;24.17;;;11.90;;
19998;SDS011;10160;50.926;4.374;2024-02-28T08:17:52;29.77;;;11.87;;
19998;SDS011;10160;50.926;4.374;2024-02-28T08:20:18;39.30;;;12.67;;
19998;SDS011;10160;50.926;4.374;2024-02-28T08:22:44;25.77;;;10.77;;
19998;SDS011;10160;50.926;4.374;2024-02-28T08:25:11;28.33;;;12.97;;
19998;SDS011;10160;50.926;4.374;2024-02-28T08:27:37;37.37;;;13.17;;
19998;SDS011;10160;50.926;4.374;2024-02-28T08:30:04;25.40;;;11.77;;
19998;SDS011;10160;50.926;4.374;2024-02-28T08:32:33;27.17;;;11.30;;
19998;SDS011;10160;50.926;4.374;2024-02-28T08:34:59;33.47;;;10.97;;
19998;SDS011;10160;50.926;4.374;2024-02-28T08:37:25;33.33;;;12.37;;
19998;SDS011;10160;50.926;4.374;2024-02-28T08:39:52;30.77;;;11.53;;
19998;SDS011;10160;50.926;4.374;2024-02-28T08:42:21;29.37;;;11.57;;
19998;SDS011;10160;50.926;4.374;2024-02-28T08:44:47;25.30;;;11.57;;
19998;SDS011;10160;50.926;4.374;2024-02-28T08:47:13;29.97;;;12.33;;
19998;SDS011;10160;50.926;4.374;2024-02-28T08:49:39;28.43;;;11.47;;
19998;SDS011;10160;50.926;4.374;2024-02-28T08:52:05;25.70;;;10.77;;
19998;SDS011;10160;50.926;4.374;2024-02-28T08:54:30;30.63;;;12.10;;
19998;SDS011;10160;50.926;4.374;2024-02-28T08:56:56;30.23;;;11.80;;
19998;SDS011;10160;50.926;4.374;2024-02-28T08:59:22;28.73;;;11.53;;
19998;SDS011;10160;50.926;4.374;2024-02-28T09:01:48;33.50;;;11.47;;
19998;SDS011;10160;50.926;4.374;2024-02-28T09:04:14;30.97;;;12.30;;
19998;SDS011;10160;50.926;4.374;2024-02-28T09:06:39;26.60;;;10.13;;
19998;SDS011;10160;50.926;4.374;2024-02-28T09:09:06;38.47;;;11.90;;
19998;SDS011;10160;50.926;4.374;2024-02-28T09:11:31;31.57;;;11.20;;
19998;SDS011;10160;50.926;4.374;2024-02-28T09:13:57;34.23;;;12.27;;
19998;SDS011;10160;50.926;4.374;2024-02-28T09:16:24;26.77;;;10.90;;
19998;SDS011;10160;50.926;4.374;2024-02-28T09:18:49;20.87;;;10.37;;
19998;SDS011;10160;50.926;4.374;2024-02-28T09:21:15;28.13;;;11.03;;
19998;SDS011;10160;50.926;4.374;2024-02-28T09:23:41;24.73;;;11.83;;
19998;SDS011;10160;50.926;4.374;2024-02-28T09:26:06;28.83;;;12.67;;
19998;SDS011;10160;50.926;4.374;2024-02-28T09:28:32;29.93;;;13.53;;
19998;SDS011;10160;50.926;4.374;2024-02-28T09:30:58;29.93;;;13.17;;
19998;SDS011;10160;50.926;4.374;2024-02-28T09:33:24;23.53;;;11.60;;
19998;SDS011;10160;50.926;4.374;2024-02-28T09:35:50;32.43;;;13.80;;
19998;SDS011;10160;50.926;4.374;2024-02-28T09:38:15;31.97;;;12.90;;
19998;SDS011;10160;50.926;4.374;2024-02-28T09:40:42;30.33;;;12.90;;
19998;SDS011;10160;50.926;4.374;2024-02-28T09:43:15;27.67;;;12.37;;
19998;SDS011;10160;50.926;4.374;2024-02-28T09:45:45;28.73;;;11.83;;
19998;SDS011;10160;50.926;4.374;2024-02-28T09:48:11;30.20;;;12.23;;
19998;SDS011;10160;50.926;4.374;2024-02-28T09:50:37;33.77;;;13.63;;
19998;SDS011;10160;50.926;4.374;2024-02-28T09:53:04;32.87;;;12.90;;
19998;SDS011;10160;50.926;4.374;2024-02-28T09:55:30;29.07;;;12.60;;
19998;SDS011;10160;50.926;4.374;2024-02-28T09:57:55;30.53;;;12.57;;
19998;SDS011;10160;50.926;4.374;2024-02-28T10:00:22;27.67;;;10.77;;
19998;SDS011;10160;50.926;4.374;2024-02-28T10:02:48;28.27;;;11.87;;
19998;SDS011;10160;50.926;4.374;2024-02-28T10:05:15;29.67;;;13.13;;
19998;SDS011;10160;50.926;4.374;2024-02-28T10:07:43;23.97;;;9.23;;
19998;SDS011;10160;50.926;4.374;2024-02-28T10:10:12;23.00;;;9.63;;
19998;SDS011;10160;50.926;4.374;2024-02-28T10:12:41;31.67;;;11.97;;
19998;SDS011;10160;50.926;4.374;2024-02-28T10:15:07;30.43;;;12.37;;
19998;SDS011;10160;50.926;4.374;2024-02-28T10:17:34;34.17;;;12.80;;
19998;SDS011;10160;50.926;4.374;2024-02-28T10:20:00;19.27;;;7.93;;
19998;SDS011;10160;50.926;4.374;2024-02-28T10:22:26;27.23;;;12.40;;
19998;SDS011;10160;50.926;4.374;2024-02-28T10:24:58;29.53;;;11.87;;
19998;SDS011;10160;50.926;4.374;2024-02-28T10:27:26;28.37;;;13.07;;
19998;SDS011;10160;50.926;4.374;2024-02-28T10:29:52;30.03;;;12.57;;
19998;SDS011;10160;50.926;4.374;2024-02-28T10:32:17;23.90;;;12.00;;
19998;SDS011;10160;50.926;4.374;2024-02-28T10:34:43;28.73;;;12.07;;
19998;SDS011;10160;50.926;4.374;2024-02-28T10:37:10;30.23;;;13.43;;
19998;SDS011;10160;50.926;4.374;2024-02-28T10:39:37;27.90;;;12.87;;
19998;SDS011;10160;50.926;4.374;2024-02-28T10:42:03;24.30;;;11.57;;
19998;SDS011;10160;50.926;4.374;2024-02-28T10:44:30;32.50;;;12.47;;
19998;SDS011;10160;50.926;4.374;2024-02-28T10:46:59;28.47;;;11.87;;
19998;SDS011;10160;50.926;4.374;2024-02-28T10:49:25;24.07;;;9.77;;
19998;SDS011;10160;50.926;4.374;2024-02-28T10:51:51;23.03;;;11.53;;
19998;SDS011;10160;50.926;4.374;2024-02-28T10:54:21;26.50;;;10.97;;
19998;SDS011;10160;50.926;4.374;2024-02-28T10:56:49;25.43;;;10.50;;
19998;SDS011;10160;50.926;4.374;2024-02-28T10:59:18;23.07;;;9.83;;
19998;SDS011;10160;50.926;4.374;2024-02-28T11:01:45;22.43;;;10.97;;
19998;SDS011;10160;50.926;4.374;2024-02-28T11:04:12;22.60;;;10.77;;
19998;SDS011;10160;50.926;4.374;2024-02-28T11:06:48;16.47;;;9.20;;
19998;SDS011;10160;50.926;4.374;2024-02-28T11:09:18;23.53;;;9.87;;
19998;SDS011;10160;50.926;4.374;2024-02-28T11:11:48;17.93;;;10.03;;
19998;SDS011;10160;50.926;4.374;2024-02-28T11:14:15;22.10;;;10.53;;
19998;SDS011;10160;50.926;4.374;2024-02-28T11:16:41;22.10;;;11.83;;
19998;SDS011;10160;50.926;4.374;2024-02-28T11:19:18;21.33;;;10.63;;
19998;SDS011;10160;50.926;4.374;2024-02-28T11:21:46;19.47;;;9.50;;
19998;SDS011;10160;50.926;4.374;2024-02-28T11:24:22;21.33;;;9.47;;
19998;SDS011;10160;50.926;4.374;2024-02-28T11:26:49;20.00;;;10.17;;
19998;SDS011;10160;50.926;4.374;2024-02-28T11:29:16;16.23;;;9.33;;
19998;SDS011;10160;50.926;4.374;2024-02-28T11:31:52;19.23;;;10.00;;
19998;SDS011;10160;50.926;4.374;2024-02-28T11:34:18;16.93;;;9.00;;
19998;SDS011;10160;50.926;4.374;2024-02-28T11:36:46;23.10;;;10.60;;
19998;SDS011;10160;50.926;4.374;2024-02-28T11:39:13;14.30;;;7.93;;
19998;SDS011;10160;50.926;4.374;2024-02-28T11:41:39;19.40;;;8.90;;
19998;SDS011;10160;50.926;4.374;2024-02-28T11:44:05;21.13;;;8.73;;
19998;SDS011;10160;50.926;4.374;2024-02-28T11:46:31;20.23;;;8.40;;
19998;SDS011;10160;50.926;4.374;2024-02-28T11:48:57;13.10;;;6.83;;
19998;SDS011;10160;50.926;4.374;2024-02-28T11:51:23;12.67;;;6.20;;
19998;SDS011;10160;50.926;4.374;2024-02-28T11:53:48;14.73;;;6.73;;
19998;SDS011;10160;50.926;4.374;2024-02-28T11:56:14;15.87;;;7.70;;
19998;SDS011;10160;50.926;4.374;2024-02-28T11:58:52;14.77;;;7.33;;
19998;SDS011;10160;50.926;4.374;2024-02-28T12:01:18;13.70;;;5.77;;
19998;SDS011;10160;50.926;4.374;2024-02-28T12:03:45;15.40;;;7.10;;
19998;SDS011;10160;50.926;4.374;2024-02-28T12:06:13;12.77;;;6.00;;
19998;SDS011;10160;50.926;4.374;2024-02-28T12:08:39;13.27;;;6.43;;
19998;SDS011;10160;50.926;4.374;2024-02-28T12:11:08;11.50;;;5.83;;
19998;SDS011;10160;50.926;4.374;2024-02-28T12:13:35;14.07;;;5.80;;
19998;SDS011;10160;50.926;4.374;2024-02-28T12:16:02;10.13;;;5.60;;
19998;SDS011;10160;50.926;4.374;2024-02-28T12:18:29;12.00;;;6.13;;
19998;SDS011;10160;50.926;4.374;2024-02-28T12:20:54;10.30;;;5.50;;
19998;SDS011;10160;50.926;4.374;2024-02-28T12:23:20;12.90;;;6.07;;
19998;SDS011;10160;50.926;4.374;2024-02-28T12:25:46;10.57;;;5.63;;
19998;SDS011;10160;50.926;4.374;2024-02-28T12:28:12;11.83;;;5.13;;
19998;SDS011;10160;50.926;4.374;2024-02-28T12:30:41;11.43;;;5.67;;
19998;SDS011;10160;50.926;4.374;2024-02-28T12:33:07;12.00;;;5.20;;
19998;SDS011;10160;50.926;4.374;2024-02-28T12:35:34;10.60;;;5.40;;
19998;SDS011;10160;50.926;4.374;2024-02-28T12:37:59;10.53;;;4.77;;
19998;SDS011;10160;50.926;4.374;2024-02-28T12:40:25;9.77;;;5.30;;
19998;SDS011;10160;50.926;4.374;2024-02-28T12:42:50;11.10;;;4.87;;
19998;SDS011;10160;50.926;4.374;2024-02-28T12:45:16;14.70;;;5.57;;
19998;SDS011;10160;50.926;4.374;2024-02-28T12:47:42;15.40;;;5.33;;
19998;SDS011;10160;50.926;4.374;2024-02-28T12:50:08;12.00;;;5.40;;
19998;SDS011;10160;50.926;4.374;2024-02-28T12:52:36;15.63;;;4.53;;
19998;SDS011;10160;50.926;4.374;2024-02-28T12:55:02;9.53;;;5.33;;
19998;SDS011;10160;50.926;4.374;2024-02-28T12:57:27;11.10;;;5.60;;
19998;SDS011;10160;50.926;4.374;2024-02-28T12:59:53;12.17;;;5.20;;
19998;SDS011;10160;50.926;4.374;2024-02-28T13:02:20;11.20;;;5.43;;
19998;SDS011;10160;50.926;4.374;2024-02-28T13:04:47;8.93;;;4.80;;
19998;SDS011;10160;50.926;4.374;2024-02-28T13:07:13;14.80;;;6.03;;
19998;SDS011;10160;50.926;4.374;2024-02-28T13:09:39;14.73;;;7.10;;
19998;SDS011;10160;50.926;4.374;2024-02-28T13:12:05;12.67;;;6.77;;
19998;SDS011;10160;50.926;4.374;2024-02-28T13:14:32;10.97;;;6.43;;
19998;SDS011;10160;50.926;4.374;2024-02-28T13:16:58;13.47;;;5.87;;
19998;SDS011;10160;50.926;4.374;2024-02-28T13:19:24;12.93;;;6.43;;
19998;SDS011;10160;50.926;4.374;2024-02-28T13:21:50;14.70;;;6.83;;
19998;SDS011;10160;50.926;4.374;2024-02-28T13:24:15;15.90;;;6.50;;
19998;SDS011;10160;50.926;4.374;2024-02-28T13:26:42;12.00;;;6.33;;
19998;SDS011;10160;50.926;4.374;2024-02-28T13:29:07;11.60;;;6.33;;
19998;SDS011;10160;50.926;4.374;2024-02-28T13:31:34;11.10;;;6.13;;
19998;SDS011;10160;50.926;4.374;2024-02-28T13:34:00;14.97;;;6.70;;
19998;SDS011;10160;50.926;4.374;2024-02-28T13:36:28;15.07;;;7.20;;
19998;SDS011;10160;50.926;4.374;2024-02-28T13:38:55;15.47;;;6.90;;
19998;SDS011;10160;50.926;4.374;2024-02-28T13:41:21;11.53;;;5.53;;
19998;SDS011;10160;50.926;4.374;2024-02-28T13:43:49;11.87;;;6.57;;
19998;SDS011;10160;50.926;4.374;2024-02-28T13:46:15;10.63;;;5.70;;
19998;SDS011;10160;50.926;4.374;2024-02-28T13:48:41;11.73;;;6.27;;
19998;SDS011;10160;50.926;4.374;2024-02-28T13:51:06;14.97;;;6.60;;
19998;SDS011;10160;50.926;4.374;2024-02-28T13:53:32;11.63;;;6.27;;
19998;SDS011;10160;50.926;4.374;2024-02-28T13:55:58;16.90;;;6.13;;
19998;SDS011;10160;50.926;4.374;2024-02-28T13:58:24;14.67;;;6.27;;
19998;SDS011;10160;50.926;4.374;2024-02-28T14:00:49;14.03;;;5.73;;
19998;SDS011;10160;50.926;4.374;2024-02-28T14:03:15;10.53;;;5.23;;
19998;SDS011;10160;50.926;4.374;2024-02-28T14:05:41;10.53;;;5.70;;
19998;SDS011;10160;50.926;4.374;2024-02-28T14:08:07;8.37;;;4.50;;
19998;SDS011;10160;50.926;4.374;2024-02-28T14:10:33;12.50;;;5.17;;
19998;SDS011;10160;50.926;4.374;2024-02-28T14:12:59;8.80;;;4.30;;
19998;SDS011;10160;50.926;4.374;2024-02-28T14:15:25;9.87;;;4.83;;
19998;SDS011;10160;50.926;4.374;2024-02-28T14:17:51;9.93;;;5.00;;
19998;SDS011;10160;50.926;4.374;2024-02-28T14:20:17;12.03;;;4.80;;